Central Il Rgnl Arpt at Bloomington-Normal Airport
KBMI : now visible

Airfield :











YOU CAN JOIN US ON...

 
LOGIN :

Register | Disclaimer

   EN    FR    IT 

 









Legend :    VFR   Marginal VFR   IFR   Intensive IFR   Very Intensive IFR
Visi :
Ceiling :
>= 8 km
>= 3000ft
5 to 8 km
1000 to 3000 ft
1500m to 5 km
500 to 1000 ft
800 to 1500m
200 to 500 ft
< 800m
< 200 ft
Symbols :   Thunderstorms  Fog  Heavy snow  Heavy precipitations  Wind > 20 kt







- Airport Elevation : 871 ft
- IATA code : BMI


KBMI - Central Il Rgnl Arpt at Bloomington-Normal

CURRENT METAR :
  • 210456Z AUTO 24011KT 10SM OVC030 01/M02 A2997 RMK AO2 FZRAB0359E00 SLP154 P0000 T00061022

EXPIRED METARs :
  • 210356Z 24012KT 10SM OVC031 01/M02 A2995 RMK AO2 SLP147 T00111022
  • 210256Z 23013KT 10SM OVC033 01/M01 A2992 RMK AO2 SLP136 T00111011 51033

TAF KBMI
Valid from the 21 at 01:00 until the 22 at 00:00 UTC


210122Z 2101/2124 24012G18KT P6SM SCT018 OVC030
TEMPO 2101/2103 BKN018
FM210300 25012KT P6SM SCT025 BKN035
FM210600 26010KT P6SM SCT080 BKN250
FM211300 25008KT P6SM BKN250
FM212000 28006KT P6SM BKN200
KZAU FIR / North America



MET'MAP, your aeronautical weather chart ! - Copyright ORBIFLY December 2007 - Disclaimer

ORBIFLY MET'MAP TEAM :

Programming & Development : Alexandra Zaïnal
Concept & Development : Baudouin d'Aumeries
Co-Development & Prog : Marc-Olivier Méhu
Technical & hardware support : Manuel Goepfert

Contact : metmap@orbifly.com




SOURCES & CREDITS :

   NOAA       Earth
Advisory